createdAt,value
2023-03-17T00:00:01.395Z,0.00
2023-03-17T00:01:01.337Z,0.00
2023-03-17T00:02:01.294Z,0.00
2023-03-17T00:03:01.213Z,0.00
2023-03-17T00:04:01.244Z,0.00
2023-03-17T00:05:01.097Z,0.00
2023-03-17T00:06:01.034Z,0.00
2023-03-17T00:07:01.012Z,0.00
2023-03-17T00:08:00.927Z,0.00
2023-03-17T00:09:00.858Z,0.00
2023-03-17T00:10:00.799Z,0.00
2023-03-17T00:11:00.756Z,0.00
2023-03-17T00:12:00.686Z,0.00
2023-03-17T00:13:00.635Z,0.00
2023-03-17T00:14:00.566Z,0.00
2023-03-17T00:15:00.504Z,0.00
2023-03-17T00:16:00.536Z,0.00
2023-03-17T00:17:00.394Z,0.00
2023-03-17T00:18:00.330Z,0.00
2023-03-17T00:19:00.277Z,0.00
2023-03-17T00:20:00.219Z,0.00
2023-03-17T00:21:00.153Z,0.00
2023-03-17T00:22:00.200Z,0.00
2023-03-17T00:23:00.052Z,0.00
2023-03-17T00:23:59.971Z,0.00
2023-03-17T00:24:59.916Z,0.00
2023-03-17T00:25:59.857Z,0.00
2023-03-17T00:26:59.797Z,0.00
2023-03-17T00:27:59.738Z,0.00
2023-03-17T00:28:59.680Z,0.00
2023-03-17T00:29:59.625Z,0.00
2023-03-17T00:30:59.613Z,0.00
2023-03-17T00:31:59.504Z,0.00
2023-03-17T00:32:59.462Z,0.00
2023-03-17T00:33:59.388Z,0.00
2023-03-17T00:34:59.328Z,0.00
2023-03-17T00:35:59.299Z,0.00
2023-03-17T00:36:59.211Z,0.00
2023-03-17T00:37:59.149Z,0.00
2023-03-17T00:38:59.112Z,0.00
2023-03-17T00:39:59.037Z,0.00
2023-03-17T00:40:58.973Z,0.00
2023-03-17T00:41:58.910Z,0.00
2023-03-17T00:42:58.856Z,0.00
2023-03-17T00:43:58.798Z,0.00
2023-03-17T00:44:58.740Z,0.00
2023-03-17T00:45:58.674Z,0.00
2023-03-17T00:46:58.670Z,0.00
2023-03-17T00:47:58.558Z,0.00
2023-03-17T00:48:58.500Z,0.00
2023-03-17T00:49:58.435Z,0.00
2023-03-17T00:50:59.085Z,0.00
2023-03-17T00:51:59.098Z,0.00
2023-03-17T00:52:58.270Z,0.00
2023-03-17T00:53:58.203Z,0.00
2023-03-17T00:54:58.155Z,0.00
2023-03-17T00:55:58.084Z,0.00
2023-03-17T00:56:58.033Z,0.00
2023-03-17T00:57:57.985Z,0.00
2023-03-17T00:58:57.914Z,0.00
2023-03-17T00:59:57.848Z,0.00
2023-03-17T01:00:57.844Z,0.00
2023-03-17T01:01:57.892Z,0.00
2023-03-17T01:02:57.673Z,0.00
2023-03-17T01:03:57.614Z,0.00
2023-03-17T01:05:05.816Z,0.00
2023-03-17T01:05:57.498Z,0.00
2023-03-17T01:06:57.440Z,0.00
2023-03-17T01:07:57.376Z,0.00
2023-03-17T01:08:57.325Z,0.00
2023-03-17T01:09:57.262Z,0.00
2023-03-17T01:10:57.214Z,0.00
2023-03-17T01:11:57.140Z,0.00
2023-03-17T01:12:57.084Z,0.00
2023-03-17T01:13:57.023Z,0.00
2023-03-17T01:14:56.964Z,0.00
2023-03-17T01:15:56.943Z,0.00
2023-03-17T01:16:56.842Z,0.00
2023-03-17T01:17:56.791Z,0.00
2023-03-17T01:18:56.796Z,0.00
2023-03-17T01:19:56.732Z,0.00
2023-03-17T01:20:56.617Z,0.00
2023-03-17T01:21:56.551Z,0.00
2023-03-17T01:22:56.494Z,0.00
2023-03-17T01:23:56.436Z,0.00
2023-03-17T01:24:56.378Z,0.00
2023-03-17T01:25:56.319Z,0.00
2023-03-17T01:26:56.273Z,0.00
2023-03-17T01:27:56.201Z,0.00
2023-03-17T01:28:56.136Z,0.00
2023-03-17T01:29:56.080Z,0.00
2023-03-17T01:30:56.025Z,0.00
2023-03-17T01:31:56.009Z,0.00
2023-03-17T01:32:55.910Z,0.00
2023-03-17T01:33:55.850Z,0.00
2023-03-17T01:34:55.787Z,0.00
2023-03-17T01:35:55.768Z,0.00
2023-03-17T01:36:55.672Z,0.00
2023-03-17T01:37:55.615Z,0.00
2023-03-17T01:38:55.554Z,0.00
2023-03-17T01:39:55.498Z,0.00
2023-03-17T01:40:55.557Z,0.00
2023-03-17T01:41:55.379Z,0.00
2023-03-17T01:42:55.335Z,0.00
2023-03-17T01:43:55.272Z,0.00
2023-03-17T01:44:55.196Z,0.00
2023-03-17T01:45:55.184Z,0.00
2023-03-17T01:46:55.079Z,0.00
2023-03-17T01:47:55.025Z,0.00
2023-03-17T01:48:54.965Z,0.00
2023-03-17T01:49:54.904Z,0.00
2023-03-17T01:50:54.840Z,0.00
2023-03-17T01:51:54.790Z,0.00
2023-03-17T01:52:54.729Z,0.00
2023-03-17T01:53:54.668Z,0.00
2023-03-17T01:54:54.609Z,0.00
2023-03-17T01:55:54.553Z,0.00
2023-03-17T01:56:54.493Z,0.00
2023-03-17T01:57:54.446Z,0.00
2023-03-17T01:58:54.469Z,0.00
2023-03-17T01:59:54.322Z,0.00
2023-03-17T02:00:54.350Z,0.00
2023-03-17T02:01:54.264Z,0.00
2023-03-17T02:02:54.138Z,0.00
2023-03-17T02:03:54.113Z,0.00
2023-03-17T02:04:54.025Z,0.00
2023-03-17T02:05:53.959Z,0.00
2023-03-17T02:07:00.967Z,0.00
2023-03-17T02:07:53.851Z,0.00
2023-03-17T02:08:53.795Z,0.00
2023-03-17T02:09:53.738Z,0.00
2023-03-17T02:10:53.664Z,0.00
2023-03-17T02:11:53.606Z,0.00
2023-03-17T02:12:53.545Z,0.00
2023-03-17T02:13:53.487Z,0.00
2023-03-17T02:14:53.444Z,0.00
2023-03-17T02:15:53.374Z,0.00
2023-03-17T02:16:53.365Z,0.00
2023-03-17T02:17:53.254Z,0.00
2023-03-17T02:18:53.190Z,0.00
2023-03-17T02:19:53.140Z,0.00
2023-03-17T02:20:53.078Z,0.00
2023-03-17T02:21:53.035Z,0.00
2023-03-17T02:22:52.960Z,0.00
2023-03-17T02:23:52.905Z,0.00
2023-03-17T02:24:52.840Z,0.00
2023-03-17T02:25:52.808Z,0.00
2023-03-17T02:26:52.723Z,0.00
2023-03-17T02:27:52.671Z,0.00
2023-03-17T02:28:52.604Z,0.00
2023-03-17T02:29:52.548Z,0.00
2023-03-17T02:30:52.620Z,0.00
2023-03-17T02:31:52.428Z,0.00
2023-03-17T02:32:52.448Z,0.00
2023-03-17T02:33:52.322Z,0.00
2023-03-17T02:34:52.260Z,0.00
2023-03-17T02:35:52.215Z,0.00
2023-03-17T02:36:52.186Z,0.00
2023-03-17T02:37:52.076Z,0.00
2023-03-17T02:38:52.019Z,0.00
2023-03-17T02:39:51.966Z,0.00
2023-03-17T02:40:51.905Z,0.00
2023-03-17T02:41:51.846Z,0.00
2023-03-17T02:42:51.785Z,0.00
2023-03-17T02:43:51.729Z,0.00
2023-03-17T02:44:51.664Z,0.00
2023-03-17T02:45:51.631Z,0.00
2023-03-17T02:46:51.560Z,0.00
2023-03-17T02:47:51.492Z,0.00
2023-03-17T02:48:51.527Z,0.00
2023-03-17T02:49:51.369Z,0.00
2023-03-17T02:50:51.315Z,0.00
2023-03-17T02:51:51.265Z,0.00
2023-03-17T02:52:51.208Z,0.00
2023-03-17T02:53:51.139Z,0.00
2023-03-17T02:54:51.076Z,0.00
2023-03-17T02:55:51.017Z,0.00
2023-03-17T02:56:50.962Z,0.00
2023-03-17T02:57:50.907Z,0.00
2023-03-17T02:58:50.841Z,0.00
2023-03-17T02:59:50.787Z,0.00
2023-03-17T03:00:50.728Z,0.00
2023-03-17T03:01:50.794Z,0.00
2023-03-17T03:02:50.643Z,0.00
2023-03-17T03:03:50.560Z,0.00
2023-03-17T03:04:50.491Z,0.00
2023-03-17T03:05:50.432Z,0.00
2023-03-17T03:06:50.375Z,0.00
2023-03-17T03:07:50.313Z,0.00
2023-03-17T03:08:50.260Z,0.00
2023-03-17T03:09:50.210Z,0.00
2023-03-17T03:10:50.134Z,0.00
2023-03-17T03:11:50.083Z,0.00
2023-03-17T03:12:50.012Z,0.00
2023-03-17T03:13:49.956Z,0.00
2023-03-17T03:14:49.899Z,0.00
2023-03-17T03:15:49.864Z,0.00
2023-03-17T03:16:49.778Z,0.00
2023-03-17T03:17:49.723Z,0.00
2023-03-17T03:18:49.680Z,0.00
2023-03-17T03:19:49.611Z,0.00
2023-03-17T03:20:49.547Z,0.00
2023-03-17T03:21:49.486Z,0.00
2023-03-17T03:22:49.438Z,0.00
2023-03-17T03:23:49.373Z,0.00
2023-03-17T03:24:49.313Z,0.00
2023-03-17T03:25:49.251Z,0.00
2023-03-17T03:26:49.193Z,0.00
2023-03-17T03:27:49.135Z,0.00
2023-03-17T03:28:49.071Z,0.00
2023-03-17T03:29:49.027Z,0.00
2023-03-17T03:30:48.984Z,0.00
2023-03-17T03:31:48.897Z,0.00
2023-03-17T03:32:48.864Z,0.00
2023-03-17T03:33:48.799Z,0.00
2023-03-17T03:34:48.785Z,0.00
2023-03-17T03:35:48.704Z,0.00
2023-03-17T03:36:48.606Z,0.00
2023-03-17T03:37:48.542Z,0.00
2023-03-17T03:38:48.484Z,0.00
2023-03-17T03:39:48.436Z,0.00
2023-03-17T03:40:48.365Z,0.00
2023-03-17T03:41:48.316Z,0.00
2023-03-17T03:42:48.251Z,0.00
2023-03-17T03:43:48.199Z,0.00
2023-03-17T03:44:48.128Z,0.00
2023-03-17T03:45:48.070Z,0.00
2023-03-17T03:46:48.083Z,0.00
2023-03-17T03:47:47.951Z,0.00
2023-03-17T03:48:47.906Z,0.00
2023-03-17T03:49:47.834Z,0.00
2023-03-17T03:50:47.782Z,0.00
2023-03-17T03:51:47.713Z,0.00
2023-03-17T03:52:47.663Z,0.00
2023-03-17T03:53:47.597Z,0.00
2023-03-17T03:54:47.551Z,0.00
2023-03-17T03:55:47.485Z,0.00
2023-03-17T03:56:47.418Z,0.00
2023-03-17T03:57:47.363Z,0.00
2023-03-17T03:58:47.305Z,0.00
2023-03-17T03:59:47.245Z,0.00
2023-03-17T04:00:47.183Z,0.00
2023-03-17T04:01:47.124Z,0.00
2023-03-17T04:02:47.117Z,0.00
2023-03-17T04:03:47.011Z,0.00
2023-03-17T04:04:47.064Z,0.00
2023-03-17T04:05:46.885Z,0.00
2023-03-17T04:06:46.907Z,0.00
2023-03-17T04:07:46.772Z,0.00
2023-03-17T04:08:46.711Z,0.00
2023-03-17T04:09:46.658Z,0.00
2023-03-17T04:10:46.589Z,0.00
2023-03-17T04:11:46.533Z,0.00
2023-03-17T04:12:46.482Z,0.00
2023-03-17T04:13:46.415Z,0.00
2023-03-17T04:14:46.362Z,0.00
2023-03-17T04:15:46.340Z,0.00
2023-03-17T04:16:46.234Z,0.00
2023-03-17T04:17:46.180Z,0.00
2023-03-17T04:18:46.193Z,0.00
2023-03-17T04:19:46.065Z,0.00
2023-03-17T04:20:46.004Z,0.00
2023-03-17T04:21:45.942Z,0.00
2023-03-17T04:22:45.901Z,0.00
2023-03-17T04:23:45.830Z,0.00
2023-03-17T04:24:45.787Z,0.00
2023-03-17T04:25:45.709Z,0.00
2023-03-17T04:26:45.652Z,0.00
2023-03-17T04:27:45.597Z,0.00
2023-03-17T04:28:45.531Z,0.00
2023-03-17T04:29:45.488Z,0.00
2023-03-17T04:30:45.410Z,0.00
2023-03-17T04:31:45.379Z,0.00
2023-03-17T04:32:45.328Z,0.00
2023-03-17T04:33:45.237Z,0.00
2023-03-17T04:34:45.179Z,0.00
2023-03-17T04:35:47.673Z,0.00
2023-03-17T04:36:45.071Z,0.00
2023-03-17T04:37:44.998Z,0.00
2023-03-17T04:38:44.946Z,0.00
2023-03-17T04:39:44.879Z,0.00
2023-03-17T04:40:44.829Z,0.00
2023-03-17T04:41:44.764Z,0.00
2023-03-17T04:42:44.702Z,0.00
2023-03-17T04:43:44.646Z,0.00
2023-03-17T04:44:44.586Z,0.00
2023-03-17T04:45:44.575Z,0.00
2023-03-17T04:46:44.466Z,0.00
2023-03-17T04:47:44.413Z,0.00
2023-03-17T04:48:44.353Z,0.00
2023-03-17T04:49:44.288Z,0.00
2023-03-17T04:50:44.231Z,0.00
2023-03-17T04:51:44.173Z,0.00
2023-03-17T04:52:44.110Z,0.00
2023-03-17T04:53:44.054Z,0.00
2023-03-17T04:54:44.027Z,0.00
2023-03-17T04:55:43.938Z,0.00
2023-03-17T04:56:43.876Z,0.00
2023-03-17T04:57:43.819Z,0.00
2023-03-17T04:58:43.761Z,0.00
2023-03-17T04:59:43.706Z,0.00
2023-03-17T05:00:43.660Z,0.00
2023-03-17T05:01:43.588Z,0.00
2023-03-17T05:02:43.526Z,0.00
2023-03-17T05:03:43.463Z,0.00
2023-03-17T05:04:43.423Z,0.00
2023-03-17T05:05:43.382Z,0.00
2023-03-17T05:06:43.288Z,0.00
2023-03-17T05:07:43.231Z,0.00
2023-03-17T05:08:43.171Z,0.00
2023-03-17T05:09:43.109Z,0.00
2023-03-17T05:10:43.054Z,0.00
2023-03-17T05:11:43.008Z,0.00
2023-03-17T05:12:42.937Z,0.00
2023-03-17T05:13:42.874Z,0.00
2023-03-17T05:14:42.820Z,0.00
2023-03-17T05:15:42.754Z,0.00
2023-03-17T05:16:42.732Z,0.00
2023-03-17T05:17:42.641Z,0.00
2023-03-17T05:18:42.586Z,0.00
2023-03-17T05:19:42.519Z,0.00
2023-03-17T05:20:42.464Z,0.00
2023-03-17T05:21:42.404Z,0.00
2023-03-17T05:22:42.344Z,0.00
2023-03-17T05:23:42.286Z,0.00
2023-03-17T05:24:42.231Z,0.00
2023-03-17T05:25:42.165Z,0.00
2023-03-17T05:26:42.208Z,0.00
2023-03-17T05:27:42.048Z,0.00
2023-03-17T05:28:41.993Z,0.00
2023-03-17T05:29:41.929Z,0.00
2023-03-17T05:30:41.883Z,0.00
2023-03-17T05:31:41.811Z,0.00
2023-03-17T05:32:41.774Z,0.00
2023-03-17T05:33:41.689Z,0.00
2023-03-17T05:34:41.632Z,0.00
2023-03-17T05:35:41.651Z,0.00
2023-03-17T05:36:41.520Z,0.00
2023-03-17T05:37:41.455Z,0.00
2023-03-17T05:38:41.443Z,0.00
2023-03-17T05:39:41.345Z,0.00
2023-03-17T05:40:41.280Z,0.00
2023-03-17T05:41:41.224Z,4.00
2023-03-17T05:42:41.168Z,4.00
2023-03-17T05:43:41.103Z,4.00
2023-03-17T05:44:41.053Z,4.00
2023-03-17T05:45:41.025Z,0.00
2023-03-17T05:46:40.919Z,0.00
2023-03-17T05:47:40.867Z,4.00
2023-03-17T05:48:40.841Z,4.00
2023-03-17T05:49:40.763Z,4.00
2023-03-17T05:50:40.683Z,8.00
2023-03-17T05:51:40.628Z,4.00
2023-03-17T05:52:40.571Z,4.00
2023-03-17T05:53:40.506Z,8.00
2023-03-17T05:54:40.456Z,8.00
2023-03-17T05:55:40.391Z,4.00
2023-03-17T05:56:40.334Z,8.00
2023-03-17T05:57:40.278Z,8.00
2023-03-17T05:58:40.230Z,12.00
2023-03-17T05:59:40.161Z,8.00
2023-03-17T06:00:54.667Z,12.00
2023-03-17T06:01:40.037Z,12.00
2023-03-17T06:02:40.063Z,12.00
2023-03-17T06:03:39.976Z,12.00
2023-03-17T06:04:39.862Z,12.00
2023-03-17T06:05:39.805Z,16.00
2023-03-17T06:06:39.741Z,12.00
2023-03-17T06:07:51.734Z,12.00
2023-03-17T06:08:39.631Z,16.00
2023-03-17T06:09:39.571Z,16.00
2023-03-17T06:10:39.514Z,16.00
2023-03-17T06:11:39.448Z,16.00
2023-03-17T06:12:39.387Z,16.00
2023-03-17T06:13:39.337Z,16.00
2023-03-17T06:14:39.286Z,20.00
2023-03-17T06:15:39.236Z,16.00
2023-03-17T06:16:39.157Z,16.00
2023-03-17T06:17:39.253Z,20.00
2023-03-17T06:18:39.036Z,24.00
2023-03-17T06:19:38.979Z,20.00
2023-03-17T06:20:38.921Z,24.00
2023-03-17T06:21:38.857Z,24.00
2023-03-17T06:22:44.058Z,24.00
2023-03-17T06:23:38.750Z,28.00
2023-03-17T06:24:38.682Z,32.00
2023-03-17T06:25:38.626Z,32.00
2023-03-17T06:26:38.565Z,24.00
2023-03-17T06:27:38.506Z,32.00
2023-03-17T06:28:38.443Z,32.00
2023-03-17T06:29:38.383Z,28.00
2023-03-17T06:30:40.639Z,32.00
2023-03-17T06:31:38.368Z,32.00
2023-03-17T06:32:38.256Z,32.00
2023-03-17T06:33:38.154Z,28.00
2023-03-17T06:34:38.097Z,24.00
2023-03-17T06:35:38.077Z,28.00
2023-03-17T06:36:38.659Z,28.00
2023-03-17T06:37:37.908Z,24.00
2023-03-17T06:38:37.852Z,24.00
2023-03-17T06:39:37.796Z,20.00
2023-03-17T06:40:37.733Z,20.00
2023-03-17T06:41:37.673Z,24.00
2023-03-17T06:42:37.614Z,24.00
2023-03-17T06:43:37.569Z,24.00
2023-03-17T06:44:37.509Z,28.00
2023-03-17T06:45:37.507Z,28.00
2023-03-17T06:46:37.418Z,28.00
2023-03-17T06:47:37.328Z,28.00
2023-03-17T06:48:37.255Z,28.00
2023-03-17T06:49:37.204Z,28.00
2023-03-17T06:50:37.145Z,32.00
2023-03-17T06:51:37.094Z,32.00
2023-03-17T06:52:37.027Z,32.00
2023-03-17T06:53:36.963Z,36.00
2023-03-17T06:54:36.900Z,36.00
2023-03-17T06:55:36.841Z,36.00
2023-03-17T06:56:36.787Z,40.00
2023-03-17T06:57:36.730Z,44.00
2023-03-17T06:58:36.667Z,48.00
2023-03-17T06:59:36.607Z,48.00
2023-03-17T07:00:36.548Z,48.00
2023-03-17T07:01:36.525Z,56.00
2023-03-17T07:02:36.438Z,60.00
2023-03-17T07:03:38.192Z,64.00
2023-03-17T07:04:36.346Z,60.00
2023-03-17T07:05:36.250Z,64.00
2023-03-17T07:06:36.194Z,64.00
2023-03-17T07:07:36.154Z,64.00
2023-03-17T07:08:36.075Z,64.00
2023-03-17T07:09:36.020Z,68.00
2023-03-17T07:10:35.956Z,64.00
2023-03-17T07:11:35.899Z,60.00
2023-03-17T07:12:35.840Z,68.00
2023-03-17T07:13:35.785Z,60.00
2023-03-17T07:14:35.740Z,64.00
2023-03-17T07:15:35.680Z,60.00
2023-03-17T07:16:35.630Z,64.00
2023-03-17T07:17:35.561Z,68.00
2023-03-17T07:18:35.487Z,68.00
2023-03-17T07:19:35.425Z,68.00
2023-03-17T07:20:35.364Z,64.00
2023-03-17T07:21:35.307Z,68.00
2023-03-17T07:22:35.241Z,72.00
2023-03-17T07:23:35.189Z,72.00
2023-03-17T07:24:35.131Z,72.00
2023-03-17T07:25:35.073Z,72.00
2023-03-17T07:26:35.010Z,76.00
2023-03-17T07:27:34.953Z,76.00
2023-03-17T07:28:34.900Z,76.00
2023-03-17T07:29:34.833Z,76.00
2023-03-17T07:30:34.770Z,80.00
2023-03-17T07:31:34.744Z,76.00
2023-03-17T07:32:34.683Z,76.00
2023-03-17T07:33:34.596Z,80.00
2023-03-17T07:34:34.551Z,80.00
2023-03-17T07:35:35.010Z,80.00
2023-03-17T07:36:34.421Z,84.00
2023-03-17T07:37:34.366Z,76.00
2023-03-17T07:38:34.301Z,80.00
2023-03-17T07:39:34.252Z,76.00
2023-03-17T07:40:35.421Z,76.00
2023-03-17T07:41:34.121Z,76.00
2023-03-17T07:42:34.065Z,76.00
2023-03-17T07:43:33.999Z,72.00
2023-03-17T07:44:33.943Z,76.00
2023-03-17T07:45:34.285Z,76.00
2023-03-17T07:46:33.822Z,80.00
2023-03-17T07:47:33.762Z,80.00
2023-03-17T07:48:33.752Z,76.00
2023-03-17T07:49:41.123Z,76.00
2023-03-17T07:50:33.594Z,80.00
2023-03-17T07:51:33.545Z,72.00
2023-03-17T07:52:33.480Z,72.00
2023-03-17T07:53:33.446Z,72.00
2023-03-17T07:54:33.348Z,72.00
2023-03-17T07:55:33.471Z,76.00
2023-03-17T07:56:33.251Z,80.00
2023-03-17T07:57:33.210Z,72.00
2023-03-17T07:58:33.118Z,76.00
2023-03-17T07:59:33.059Z,84.00
2023-03-17T08:00:33.288Z,76.00
2023-03-17T08:01:32.941Z,84.00
2023-03-17T08:02:32.910Z,84.00
2023-03-17T08:03:32.862Z,84.00
2023-03-17T08:04:32.788Z,76.00
2023-03-17T08:05:32.729Z,80.00
2023-03-17T08:06:32.643Z,84.00
2023-03-17T08:07:32.582Z,84.00
2023-03-17T08:08:32.521Z,84.00
2023-03-17T08:09:32.465Z,80.00
2023-03-17T08:10:32.825Z,80.00
2023-03-17T08:11:32.345Z,80.00
2023-03-17T08:12:32.300Z,68.00
2023-03-17T08:13:32.237Z,68.00
2023-03-17T08:14:32.165Z,76.00
2023-03-17T08:15:32.126Z,76.00
2023-03-17T08:16:32.091Z,84.00
2023-03-17T08:17:32.020Z,84.00
2023-03-17T08:18:31.978Z,84.00
2023-03-17T08:19:31.908Z,88.00
2023-03-17T08:20:32.091Z,80.00
2023-03-17T08:21:31.755Z,88.00
2023-03-17T08:22:31.716Z,76.00
2023-03-17T08:23:31.643Z,76.00
2023-03-17T08:24:31.607Z,84.00
2023-03-17T08:25:31.531Z,104.00
2023-03-17T08:26:31.466Z,116.00
2023-03-17T08:27:33.662Z,116.00
2023-03-17T08:28:31.453Z,124.00
2023-03-17T08:29:31.297Z,120.00
2023-03-17T08:30:33.585Z,120.00
2023-03-17T08:31:31.227Z,120.00
2023-03-17T08:32:31.187Z,124.00
2023-03-17T08:33:31.077Z,92.00
2023-03-17T08:34:30.988Z,88.00
2023-03-17T08:35:31.290Z,116.00
2023-03-17T08:36:30.871Z,84.00
2023-03-17T08:37:30.807Z,92.00
2023-03-17T08:38:30.819Z,88.00
2023-03-17T08:39:30.727Z,112.00
2023-03-17T08:40:31.221Z,112.00
2023-03-17T08:41:30.640Z,124.00
2023-03-17T08:42:30.525Z,128.00
2023-03-17T08:43:30.452Z,112.00
2023-03-17T08:44:30.395Z,144.00
2023-03-17T08:45:30.618Z,144.00
2023-03-17T08:46:30.388Z,132.00
2023-03-17T08:47:30.229Z,132.00
2023-03-17T08:48:30.158Z,128.00
2023-03-17T08:49:30.105Z,120.00
2023-03-17T08:50:30.421Z,136.00
2023-03-17T08:51:29.990Z,136.00
2023-03-17T08:52:29.918Z,128.00
2023-03-17T08:53:29.884Z,132.00
2023-03-17T08:54:29.813Z,128.00
2023-03-17T08:55:29.751Z,128.00
2023-03-17T08:56:29.688Z,132.00
2023-03-17T08:57:29.629Z,132.00
2023-03-17T08:58:29.569Z,128.00
2023-03-17T08:59:29.525Z,132.00
2023-03-17T09:00:29.805Z,132.00
2023-03-17T09:01:29.401Z,144.00
2023-03-17T09:02:29.362Z,152.00
2023-03-17T09:03:29.280Z,148.00
2023-03-17T09:04:29.213Z,148.00
2023-03-17T09:05:29.536Z,136.00
2023-03-17T09:06:29.097Z,144.00
2023-03-17T09:07:29.098Z,132.00
2023-03-17T09:08:28.979Z,136.00
2023-03-17T09:09:28.927Z,128.00
2023-03-17T09:10:29.260Z,132.00
2023-03-17T09:11:28.853Z,124.00
2023-03-17T09:12:28.751Z,128.00
2023-03-17T09:13:28.682Z,132.00
2023-03-17T09:14:29.563Z,144.00
2023-03-17T09:15:28.567Z,160.00
2023-03-17T09:16:28.672Z,168.00
2023-03-17T09:17:28.450Z,172.00
2023-03-17T09:18:28.386Z,168.00
2023-03-17T09:19:28.330Z,168.00
2023-03-17T09:20:28.268Z,164.00
2023-03-17T09:21:28.221Z,152.00
2023-03-17T09:22:28.149Z,148.00
2023-03-17T09:23:28.175Z,164.00
2023-03-17T09:24:28.033Z,152.00
2023-03-17T09:25:27.971Z,168.00
2023-03-17T09:26:27.927Z,168.00
2023-03-17T09:27:27.856Z,168.00
2023-03-17T09:28:27.797Z,168.00
2023-03-17T09:29:27.736Z,168.00
2023-03-17T09:30:27.685Z,164.00
2023-03-17T09:31:27.718Z,144.00
2023-03-17T09:32:27.706Z,160.00
2023-03-17T09:33:27.514Z,148.00
2023-03-17T09:34:27.448Z,148.00
2023-03-17T09:35:27.386Z,152.00
2023-03-17T09:36:27.320Z,168.00
2023-03-17T09:37:27.266Z,168.00
2023-03-17T09:38:27.216Z,172.00
2023-03-17T09:39:27.150Z,172.00
2023-03-17T09:40:28.566Z,172.00
2023-03-17T09:41:27.032Z,164.00
2023-03-17T09:42:26.973Z,168.00
2023-03-17T09:43:26.935Z,164.00
2023-03-17T09:44:26.857Z,180.00
2023-03-17T09:45:27.718Z,172.00
2023-03-17T09:46:26.797Z,172.00
2023-03-17T09:47:29.220Z,168.00
2023-03-17T09:48:26.619Z,168.00
2023-03-17T09:49:26.556Z,176.00
2023-03-17T09:50:26.500Z,180.00
2023-03-17T09:51:26.439Z,180.00
2023-03-17T09:52:26.396Z,180.00
2023-03-17T09:53:26.361Z,180.00
2023-03-17T09:54:26.263Z,184.00
2023-03-17T09:55:26.205Z,192.00
2023-03-17T09:56:26.144Z,184.00
2023-03-17T09:57:26.091Z,180.00
2023-03-17T09:58:26.041Z,184.00
2023-03-17T09:59:25.994Z,176.00
2023-03-17T10:00:25.912Z,180.00
2023-03-17T10:01:25.906Z,196.00
2023-03-17T10:02:25.798Z,192.00
2023-03-17T10:03:25.822Z,196.00
2023-03-17T10:04:25.685Z,196.00
2023-03-17T10:05:25.695Z,204.00
2023-03-17T10:06:25.560Z,204.00
2023-03-17T10:07:25.501Z,200.00
2023-03-17T10:08:30.776Z,216.00
2023-03-17T10:09:26.944Z,224.00
2023-03-17T10:10:25.321Z,208.00
2023-03-17T10:11:25.264Z,180.00
2023-03-17T10:12:25.213Z,192.00
2023-03-17T10:13:31.737Z,180.00
2023-03-17T10:14:25.087Z,184.00
2023-03-17T10:15:25.031Z,200.00
2023-03-17T10:16:25.019Z,212.00
2023-03-17T10:17:24.912Z,216.00
2023-03-17T10:18:24.852Z,212.00
2023-03-17T10:19:24.808Z,220.00
2023-03-17T10:20:24.738Z,224.00
2023-03-17T10:21:24.681Z,208.00
2023-03-17T10:22:24.624Z,212.00
2023-03-17T10:23:24.641Z,236.00
2023-03-17T10:24:24.514Z,200.00
2023-03-17T10:25:24.445Z,212.00
2023-03-17T10:26:24.391Z,248.00
2023-03-17T10:27:24.330Z,280.00
2023-03-17T10:28:24.271Z,360.00
2023-03-17T10:29:24.269Z,408.00
2023-03-17T10:30:24.170Z,436.00
2023-03-17T10:31:24.126Z,600.00
2023-03-17T10:32:24.040Z,676.00
2023-03-17T10:33:24.063Z,764.00
2023-03-17T10:34:23.925Z,824.00
2023-03-17T10:35:23.869Z,840.00
2023-03-17T10:36:23.801Z,792.00
2023-03-17T10:37:23.767Z,740.00
2023-03-17T10:38:23.693Z,640.00
2023-03-17T10:39:23.626Z,660.00
2023-03-17T10:40:23.569Z,636.00
2023-03-17T10:41:23.511Z,580.00
2023-03-17T10:42:23.460Z,596.00
2023-03-17T10:43:23.438Z,616.00
2023-03-17T10:44:23.340Z,476.00
2023-03-17T10:45:23.280Z,556.00
2023-03-17T10:46:23.341Z,616.00
2023-03-17T10:47:23.160Z,692.00
2023-03-17T10:48:23.101Z,632.00
2023-03-17T10:49:23.041Z,620.00
2023-03-17T10:50:23.059Z,576.00
2023-03-17T10:51:22.927Z,376.00
2023-03-17T10:52:22.876Z,300.00
2023-03-17T10:53:22.915Z,372.00
2023-03-17T10:54:22.768Z,440.00
2023-03-17T10:55:22.695Z,476.00
2023-03-17T10:56:22.637Z,332.00
2023-03-17T10:57:22.602Z,332.00
2023-03-17T10:58:22.545Z,476.00
2023-03-17T10:59:22.477Z,480.00
2023-03-17T11:00:22.404Z,548.00
2023-03-17T11:01:22.411Z,556.00
2023-03-17T11:02:22.290Z,572.00
2023-03-17T11:03:22.325Z,536.00
2023-03-17T11:04:22.211Z,576.00
2023-03-17T11:05:22.119Z,552.00
2023-03-17T11:06:22.061Z,448.00
2023-03-17T11:07:22.003Z,616.00
2023-03-17T11:08:21.940Z,496.00
2023-03-17T11:09:21.885Z,508.00
2023-03-17T11:10:21.824Z,468.00
2023-03-17T11:11:22.483Z,424.00
2023-03-17T11:12:21.709Z,420.00
2023-03-17T11:13:21.653Z,424.00
2023-03-17T11:14:21.601Z,376.00
2023-03-17T11:15:21.534Z,368.00
2023-03-17T11:16:21.540Z,360.00
2023-03-17T11:17:21.425Z,368.00
2023-03-17T11:18:21.372Z,376.00
2023-03-17T11:19:21.300Z,364.00
2023-03-17T11:20:21.291Z,380.00
2023-03-17T11:21:21.207Z,400.00
2023-03-17T11:22:21.141Z,432.00
2023-03-17T11:23:21.085Z,456.00
2023-03-17T11:24:21.027Z,460.00
2023-03-17T11:25:20.967Z,472.00
2023-03-17T11:26:20.900Z,292.00
2023-03-17T11:27:20.843Z,312.00
2023-03-17T11:28:20.790Z,396.00
2023-03-17T11:29:20.738Z,488.00
2023-03-17T11:30:20.686Z,516.00
2023-03-17T11:31:20.635Z,488.00
2023-03-17T11:32:20.551Z,500.00
2023-03-17T11:33:20.507Z,516.00
2023-03-17T11:34:20.443Z,500.00
2023-03-17T11:35:20.383Z,472.00
2023-03-17T11:36:20.329Z,460.00
2023-03-17T11:37:20.266Z,460.00
2023-03-17T11:38:20.223Z,492.00
2023-03-17T11:39:20.150Z,524.00
2023-03-17T11:40:20.095Z,544.00
2023-03-17T11:41:20.031Z,536.00
2023-03-17T11:42:19.978Z,556.00
2023-03-17T11:43:19.917Z,560.00
2023-03-17T11:44:19.878Z,512.00
2023-03-17T11:45:19.811Z,456.00
2023-03-17T11:46:19.788Z,300.00
2023-03-17T11:47:19.691Z,240.00
2023-03-17T11:48:19.640Z,336.00
2023-03-17T11:49:19.582Z,436.00
2023-03-17T11:50:19.519Z,384.00
2023-03-17T11:51:19.460Z,404.00
2023-03-17T11:52:19.405Z,440.00
2023-03-17T11:53:19.344Z,448.00
2023-03-17T11:54:19.290Z,452.00
2023-03-17T11:55:19.234Z,420.00
2023-03-17T11:56:19.171Z,380.00
2023-03-17T11:57:19.704Z,336.00
2023-03-17T11:58:19.051Z,324.00
2023-03-17T11:59:19.009Z,380.00
2023-03-17T12:00:18.937Z,384.00
2023-03-17T12:01:18.882Z,468.00
2023-03-17T12:02:18.852Z,444.00
2023-03-17T12:03:18.821Z,480.00
2023-03-17T12:04:18.782Z,356.00
2023-03-17T12:05:18.658Z,376.00
2023-03-17T12:06:18.599Z,444.00
2023-03-17T12:07:18.534Z,488.00
2023-03-17T12:08:18.476Z,480.00
2023-03-17T12:09:18.422Z,456.00
2023-03-17T12:10:18.362Z,464.00
2023-03-17T12:11:18.304Z,508.00
2023-03-17T12:12:18.259Z,512.00
2023-03-17T12:13:18.203Z,488.00
2023-03-17T12:14:18.132Z,460.00
2023-03-17T12:15:18.087Z,436.00
2023-03-17T12:16:18.090Z,376.00
2023-03-17T12:17:17.960Z,324.00
2023-03-17T12:18:17.901Z,284.00
2023-03-17T12:19:17.844Z,240.00
2023-03-17T12:20:17.791Z,196.00
2023-03-17T12:21:17.749Z,200.00
2023-03-17T12:22:17.676Z,216.00
2023-03-17T12:23:17.617Z,200.00
2023-03-17T12:24:17.572Z,220.00
2023-03-17T12:25:17.500Z,204.00
2023-03-17T12:26:17.458Z,196.00
2023-03-17T12:27:17.390Z,204.00
2023-03-17T12:28:17.330Z,196.00
2023-03-17T12:29:17.272Z,188.00
2023-03-17T12:30:17.227Z,188.00
2023-03-17T12:31:17.209Z,180.00
2023-03-17T12:32:17.099Z,188.00
2023-03-17T12:33:17.047Z,184.00
2023-03-17T12:34:17.019Z,180.00
2023-03-17T12:35:16.944Z,176.00
2023-03-17T12:36:16.913Z,180.00
2023-03-17T12:37:16.830Z,176.00
2023-03-17T12:38:16.764Z,172.00
2023-03-17T12:39:16.701Z,176.00
2023-03-17T12:40:16.647Z,176.00
2023-03-17T12:41:16.587Z,176.00
2023-03-17T12:42:16.529Z,172.00
2023-03-17T12:43:16.522Z,172.00
2023-03-17T12:44:16.419Z,172.00
2023-03-17T12:45:16.379Z,176.00
2023-03-17T12:46:16.331Z,168.00
2023-03-17T12:47:16.245Z,180.00
2023-03-17T12:48:16.215Z,200.00
2023-03-17T12:49:16.135Z,208.00
2023-03-17T12:50:16.081Z,176.00
2023-03-17T12:51:16.028Z,168.00
2023-03-17T12:52:15.969Z,164.00
2023-03-17T12:53:15.921Z,152.00
2023-03-17T12:54:15.849Z,160.00